Accueil
METAR-TAF:

METAR-TAF

Aéroports :

Wonderboom Airport

Pretoria, Afrique du Sud

latitude: 25-39S, longitude: 028-13E, altitude: 1248 m

Observation

Le bulletin a été fait il y a 48 minutes, à 23:00 UTC
Vent 7 kt de sud-ouest
Température 8°C
Humidité 36%
Pression 1023 hPa

METAR: FAWB 152300Z AUTO 22007KT //// // ////// 08/M06 Q1023

Heure: 01:48 (23:48 UTC)

Prévision

Le bulletin a été fait il y a 14 heures et 48 minutes, à 09:00 UTC
Prévision valable du 15 à 10 UTC au 15 à 18 UTC
Vent 7 kt de sud/sud-ouest
Visibilité 10 km ou plus
pas de nuages en-dessous de 1500 mètres et pas de cumulonimbus.

TAF: FAWB 150900Z 1510/1518 21007KT CAVOK TX22/1513Z TN13/1518Z

Observations et prévisions météorologiques de plus de 4000 aéroports (messages METAR et TAF).

Les stations disponibles sont représentées par des disques jaunes et rouges sur la carte.

Passer la souris dessus pour voir le nom de la station.

Cliquer dessus pour voir les observations et prévisions météorologiques.

Pour changer de carte: cliquez sur les boutons verts avec une croix noire pour zoomer, sur le bouton vert avec un tiret pour effectuer un zoom arrière, ou sur les flèches vertes pour les cartes adjacentes.


METAR-TAF: